This is the latest recevied weather packets stored in our database for station/object F4JUT-10. If no packets are shown the sender has not sent any weather packets the latest 10 day(s).
| Time | Temp. | Humidity | Pressure | Rain* | Wind** | Luminosity | Snow |
|---|---|---|---|---|---|---|---|
| 1777983471 | 17.78° C | 76% | 1013.4 hPa | - | - | - | - |
| 1777982571 | 18.89° C | 75% | 1013.5 hPa | - | - | - | - |
| 1777981671 | 19.44° C | 68% | 1013.6 hPa | - | - | - | - |
| 1777980771 | 21.11° C | 54% | 1013.7 hPa | - | - | - | - |
| 1777979870 | 21.67° C | 54% | 1013.6 hPa | - | - | - | - |
| 1777978971 | 22.22° C | 54% | 1013.9 hPa | - | - | - | - |
| 1777978970 | 22.22° C | 54% | 1013.9 hPa | - | - | - | - |
| 1777978070 | 21.11° C | 66% | 1013.9 hPa | - | - | - | - |
| 1777977170 | 20° C | 74% | 1013.9 hPa | - | - | - | - |
| 1777976270 | 17.22° C | 89% | 1014.1 hPa | - | - | - | - |
| 1777975370 | 14.44° C | 95% | 1014.2 hPa | - | - | - | - |
| 1777974470 | 12.78° C | 98% | 1014.2 hPa | - | - | - | - |
| 1777973570 | 12.22° C | 98% | 1014.2 hPa | - | - | - | - |
| 1777972669 | 11.67° C | 99% | 1014.2 hPa | - | - | - | - |
| 1777971769 | 11.11° C | 99% | 1014 hPa | - | - | - | - |
| 1777970869 | 11.11° C | 99% | 1014 hPa | - | - | - | - |
| 1777969969 | 10.56° C | 99% | 1013.8 hPa | - | - | - | - |
| 1777969069 | 10.56° C | 98% | 1013.8 hPa | - | - | - | - |
| 1777968169 | 10.56° C | 98% | 1013.8 hPa | - | - | - | - |
| 1777967269 | 10.56° C | 97% | 1013.8 hPa | - | - | - | - |
| 1777966369 | 10.56° C | 97% | 1013.8 hPa | - | - | - | - |
| 1777965469 | 10.56° C | 97% | 1013.7 hPa | - | - | - | - |
| 1777964569 | 10.56° C | 96% | 1013.7 hPa | - | - | - | - |
| 1777963676 | 10.56° C | 96% | 1013.5 hPa | - | - | - | - |
| 1777962776 | 10.56° C | 94% | 1013.6 hPa | - | - | - | - |
* Rain since midnight (hover to see other rain measurements)
** Current wind speed in m/s (hover to see current wind gust speed)